Time;durP1;ratioP1;P1;durP2;ratioP2;P2;SDS_P1;SDS_P2;PMS_P1;PMS_P2;Temp;Humidity;BMP_temperature;BMP_pressure;BME280_temperature;BME280_humidity;BME280_pressure;Samples;Min_cycle;Max_cycle;Signal;HPM_P1;HPM_P2
2022/08/03 00:00:06;;;;;;;;;3.33;3.33;;;;;24.50;100.00;101093.88;5014741;28;45739;-76
2022/08/03 00:02:32;;;;;;;;;6.00;5.67;;;;;24.56;100.00;101111.50;5014375;28;45525;-79
2022/08/03 00:04:59;;;;;;;;;9.33;8.67;;;;;24.51;100.00;101105.94;5030029;28;45967;-80
2022/08/03 00:07:52;;;;;;;;;6.33;6.00;;;;;24.61;100.00;101124.66;5013508;28;45835;-76
2022/08/03 00:10:20;;;;;;;;;4.67;4.67;;;;;24.36;100.00;101098.50;5001327;28;45531;-82
2022/08/03 00:12:46;;;;;;;;;8.00;5.67;;;;;24.45;100.00;101105.16;5010546;28;45550;-76
2022/08/03 00:15:15;;;;;;;;;4.67;4.00;;;;;24.28;100.00;101082.31;5012180;28;45821;-77
2022/08/03 00:17:44;;;;;;;;;4.33;2.33;;;;;24.57;100.00;101134.78;5012179;28;45825;-77
2022/08/03 00:20:13;;;;;;;;;4.33;3.00;;;;;24.35;100.00;101098.78;5007818;28;45746;-77
2022/08/03 00:22:39;;;;;;;;;5.00;3.00;;;;;24.32;100.00;101097.41;5004872;28;45670;-80
2022/08/03 00:25:07;;;;;;;;;3.00;1.67;;;;;24.25;100.00;101096.91;5028396;28;45570;-79
2022/08/03 00:27:35;;;;;;;;;1.67;1.67;;;;;24.48;100.00;101131.78;5028774;28;47105;-75
2022/08/03 00:30:31;;;;;;;;;4.00;2.00;;;;;24.46;100.00;101131.22;5013574;28;45426;-76
2022/08/03 00:32:59;;;;;;;;;1.00;1.00;;;;;24.42;100.00;101132.94;5011354;28;45397;-76
2022/08/03 00:35:31;;;;;;;;;2.00;2.00;;;;;24.37;100.00;101131.03;5012827;28;45438;-78
2022/08/03 00:37:57;;;;;;;;;4.00;2.00;;;;;24.32;100.00;101123.47;5013526;28;45388;-78
2022/08/03 00:40:41;;;;;;;;;6.00;2.00;;;;;24.16;100.00;101099.50;5012170;28;45346;-77
2022/08/03 00:43:09;;;;;;;;;2.00;2.00;;;;;24.23;100.00;101125.22;5013876;28;45555;-75
2022/08/03 00:45:49;;;;;;;;;3.33;2.00;;;;;24.19;100.00;101123.28;5013043;28;45805;-76
2022/08/03 00:48:15;;;;;;;;;2.33;1.33;;;;;24.05;100.00;101100.72;5011817;28;46758;-75
2022/08/03 00:50:46;;;;;;;;;1.67;1.67;;;;;24.06;100.00;101114.44;5011796;28;45358;-76
2022/08/03 00:53:12;;;;;;;;;4.00;3.00;;;;;23.96;100.00;101092.09;5013033;28;45410;-76
2022/08/03 00:55:42;;;;;;;;;10.00;8.00;;;;;24.06;100.00;101108.81;5014143;28;45814;-76
2022/08/03 00:58:10;;;;;;;;;0.67;0.67;;;;;24.09;100.00;101111.03;5012985;28;46375;-79
2022/08/03 01:00:38;;;;;;;;;1.25;1.25;;;;;23.96;100.00;101103.28;5011259;28;45598;-78
2022/08/03 01:03:05;;;;;;;;;4.00;2.00;;;;;23.89;100.00;101092.44;5013270;28;45501;-77
2022/08/03 01:05:51;;;;;;;;;2.00;2.00;;;;;23.95;100.00;101105.25;5011901;28;45478;-78
2022/08/03 01:08:49;;;;;;;;;1.00;1.00;;;;;24.03;100.00;101114.16;5001745;28;45610;-79
2022/08/03 01:11:19;;;;;;;;;0.33;0.33;;;;;24.01;100.00;101108.84;5003343;28;45598;-79
2022/08/03 01:14:23;;;;;;;;;1.75;1.75;;;;;23.95;100.00;101110.88;5013050;28;45685;-75
2022/08/03 01:17:10;;;;;;;;;1.67;1.67;;;;;23.82;100.00;101085.41;4999949;28;45824;-76
2022/08/03 01:20:05;;;;;;;;;2.00;2.00;;;;;23.85;100.00;101102.53;5026093;28;46265;-78
2022/08/03 01:23:02;;;;;;;;;1.00;1.00;;;;;23.78;100.00;101093.56;5009847;28;45820;-76
2022/08/03 01:25:38;;;;;;;;;2.00;1.00;;;;;23.73;100.00;101085.22;5011068;28;45382;-76
2022/08/03 01:28:28;;;;;;;;;1.00;1.00;;;;;23.69;100.00;101098.94;5017299;28;46052;-79
2022/08/03 01:31:00;;;;;;;;;1.33;1.33;;;;;23.53;100.00;101075.78;5024082;28;47743;-79
2022/08/03 01:33:38;;;;;;;;;2.00;1.00;;;;;23.58;100.00;101091.75;5025943;28;45838;-77
2022/08/03 01:36:14;;;;;;;;;1.00;1.00;;;;;23.45;100.00;101082.81;5025356;28;45803;-79
2022/08/03 01:38:50;;;;;;;;;2.00;1.00;;;;;23.47;100.00;101084.50;5018431;28;45862;-77
2022/08/03 01:41:21;;;;;;;;;2.33;1.00;;;;;23.45;100.00;101093.19;5031000;28;46764;-76
2022/08/03 01:43:49;;;;;;;;;1.33;1.33;;;;;23.42;100.00;101088.16;5005112;28;45896;-75
2022/08/03 01:46:17;;;;;;;;;2.67;1.00;;;;;23.36;100.00;101087.34;5017304;28;45638;-76
2022/08/03 01:48:45;;;;;;;;;1.67;1.67;;;;;23.27;100.00;101072.28;5025129;28;45506;-76
2022/08/03 01:51:12;;;;;;;;;1.33;0.67;;;;;23.27;100.00;101075.09;5023339;28;46284;-79
2022/08/03 01:53:43;;;;;;;;;0.33;0.33;;;;;23.23;100.00;101083.22;5027853;28;45443;-76
2022/08/03 01:56:15;;;;;;;;;1.00;1.00;;;;;23.14;100.00;101072.91;5020210;28;45603;-79
2022/08/03 01:58:43;;;;;;;;;3.00;1.00;;;;;23.19;100.00;101078.47;5032478;28;45527;-75
2022/08/03 02:01:10;;;;;;;;;1.00;1.00;;;;;23.12;100.00;101075.16;5032194;28;46463;-80
2022/08/03 02:03:39;;;;;;;;;1.00;1.00;;;;;23.10;100.00;101075.44;5031984;28;45483;-80
2022/08/03 02:06:09;;;;;;;;;2.67;0.00;;;;;23.11;100.00;101088.28;5030788;28;45795;-75
2022/08/03 02:08:34;;;;;;;;;1.33;1.33;;;;;23.06;100.00;101079.88;5029936;28;45876;-75
2022/08/03 02:11:01;;;;;;;;;1.00;1.00;;;;;23.00;100.00;101079.06;5019566;28;45727;-75
2022/08/03 02:13:28;;;;;;;;;1.00;1.00;;;;;22.97;100.00;101081.59;5015700;28;45847;-74
2022/08/03 02:15:55;;;;;;;;;1.33;1.33;;;;;22.94;100.00;101083.00;5030282;28;45570;-76
2022/08/03 02:18:22;;;;;;;;;1.33;1.33;;;;;22.92;100.00;101076.88;5030020;28;45565;-78
2022/08/03 02:20:49;;;;;;;;;2.33;1.00;;;;;22.90;100.00;101070.69;5029430;28;45462;-75
2022/08/03 02:23:15;;;;;;;;;1.33;1.33;;;;;22.89;100.00;101080.22;5019979;28;45804;-75
2022/08/03 02:25:45;;;;;;;;;2.00;1.00;;;;;22.88;100.00;101078.53;5030947;28;45721;-76
2022/08/03 02:28:18;;;;;;;;;4.00;1.67;;;;;22.87;100.00;101068.47;5023857;28;47155;-78
2022/08/03 02:30:47;;;;;;;;;3.00;1.67;;;;;22.85;100.00;101074.34;5011419;28;45572;-79
2022/08/03 02:33:47;;;;;;;;;3.00;2.00;;;;;22.84;100.00;101072.66;5030069;28;45411;-78
2022/08/03 02:36:14;;;;;;;;;2.00;2.00;;;;;22.86;100.00;101072.38;5004134;28;45835;-76
2022/08/03 02:38:43;;;;;;;;;2.00;2.00;;;;;22.76;100.00;101061.25;5019502;28;45774;-77
2022/08/03 02:41:15;;;;;;;;;1.00;1.00;;;;;22.84;100.00;101078.25;5029841;28;47881;-78
2022/08/03 02:43:45;;;;;;;;;3.00;1.67;;;;;22.82;100.00;101077.72;5023962;28;45466;-78
2022/08/03 02:46:16;;;;;;;;;3.00;1.00;;;;;22.81;100.00;101066.81;5024692;28;45762;-82
2022/08/03 02:48:44;;;;;;;;;2.00;1.00;;;;;22.80;100.00;101073.53;5031502;28;45572;-81
2022/08/03 02:51:10;;;;;;;;;0.00;0.00;;;;;22.74;100.00;101062.38;5031920;28;46087;-81
2022/08/03 02:53:36;;;;;;;;;1.33;1.33;;;;;22.73;100.00;101066.28;5031353;28;45860;-82
2022/08/03 02:56:03;;;;;;;;;1.00;1.00;;;;;22.77;100.00;101071.28;5031771;28;45494;-80
2022/08/03 02:58:30;;;;;;;;;2.00;1.67;;;;;22.73;100.00;101060.69;5017847;28;45802;-80
2022/08/03 03:00:56;;;;;;;;;1.00;1.00;;;;;22.74;100.00;101067.13;5031516;28;45781;-80
2022/08/03 03:03:23;;;;;;;;;1.00;1.00;;;;;22.72;100.00;101059.03;5029371;28;45777;-80
2022/08/03 03:05:49;;;;;;;;;4.00;2.67;;;;;22.61;100.00;101037.78;5020082;28;45383;-82
2022/08/03 03:08:17;;;;;;;;;1.67;1.67;;;;;22.71;100.00;101059.28;5031984;28;46164;-82
2022/08/03 03:10:43;;;;;;;;;3.00;1.33;;;;;22.70;100.00;101063.22;5035223;28;46184;-83
2022/08/03 03:13:10;;;;;;;;;1.33;1.33;;;;;22.69;100.00;101053.97;5033700;28;45782;-81
2022/08/03 03:15:38;;;;;;;;;2.00;2.00;;;;;22.70;100.00;101061.25;5029982;28;45845;-79
2022/08/03 03:18:09;;;;;;;;;1.67;0.33;;;;;22.58;100.00;101038.34;5024915;28;45422;-77
2022/08/03 03:20:37;;;;;;;;;1.67;1.67;;;;;22.71;100.00;101050.88;5033960;28;46636;-76
2022/08/03 03:23:04;;;;;;;;;1.00;1.00;;;;;22.55;100.00;101024.94;5024097;28;45726;-77
2022/08/03 03:25:31;;;;;;;;;3.00;2.00;;;;;22.56;100.00;101026.63;5020462;28;45380;-78
2022/08/03 03:27:58;;;;;;;;;2.00;2.00;;;;;22.69;100.00;101053.13;5009930;28;45914;-78
2022/08/03 03:30:24;;;;;;;;;2.00;1.00;;;;;22.64;100.00;101041.97;5010801;28;45863;-77
2022/08/03 03:32:50;;;;;;;;;3.33;1.67;;;;;22.63;100.00;101043.91;5013320;28;45714;-78
2022/08/03 03:35:15;;;;;;;;;1.00;1.00;;;;;22.68;100.00;101049.50;5025280;28;45498;-78
2022/08/03 03:37:44;;;;;;;;;3.00;3.00;;;;;22.63;100.00;101038.31;5026476;28;45383;-77
2022/08/03 03:40:10;;;;;;;;;4.00;1.33;;;;;22.50;100.00;101020.19;5012127;28;45578;-81
2022/08/03 03:42:39;;;;;;;;;3.33;2.33;;;;;22.62;100.00;101047.00;5020869;28;45606;-78
2022/08/03 03:45:06;;;;;;;;;1.67;1.67;;;;;22.61;100.00;101046.16;5026301;28;45605;-79
2022/08/03 03:47:41;;;;;;;;;5.00;3.00;;;;;22.52;100.00;101039.50;5019759;28;45867;-80
2022/08/03 03:50:09;;;;;;;;;4.00;3.00;;;;;22.58;100.00;101051.50;5014917;28;45694;-77
2022/08/03 03:52:36;;;;;;;;;3.33;2.33;;;;;22.47;100.00;101040.34;5026610;28;45733;-80
2022/08/03 03:55:03;;;;;;;;;2.33;1.33;;;;;22.54;100.00;101054.84;5021037;28;45765;-76
2022/08/03 03:57:28;;;;;;;;;4.67;3.00;;;;;22.54;100.00;101048.41;5027258;28;45852;-77
2022/08/03 03:59:54;;;;;;;;;2.33;1.00;;;;;22.47;100.00;101036.69;5027423;28;45446;-77
2022/08/03 04:02:19;;;;;;;;;0.33;0.33;;;;;22.51;100.00;101040.59;5026574;28;45552;-78
2022/08/03 04:13:14;;;;;;;;;1.67;1.67;;;;;22.35;100.00;101032.25;5026969;28;45329;-83
2022/08/03 04:15:40;;;;;;;;;3.00;1.00;;;;;22.47;100.00;101053.44;5016169;28;45576;-82
2022/08/03 04:18:10;;;;;;;;;3.67;2.67;;;;;22.48;100.00;101058.75;4997879;28;47059;-80
2022/08/03 04:20:39;;;;;;;;;2.33;2.33;;;;;22.48;100.00;101050.38;5009406;28;46604;-82
2022/08/03 04:23:06;;;;;;;;;2.33;2.00;;;;;22.39;100.00;101038.09;5015935;28;45430;-81
2022/08/03 04:25:34;;;;;;;;;8.00;8.00;;;;;22.49;100.00;101054.03;5016772;28;45368;-81
2022/08/03 04:28:01;;;;;;;;;12.00;6.33;;;;;22.49;100.00;101054.84;5022055;28;45893;-80
2022/08/03 04:30:28;;;;;;;;;6.33;5.00;;;;;22.49;100.00;101042.84;5007495;28;46341;-80
2022/08/03 04:32:56;;;;;;;;;6.33;5.00;;;;;22.57;100.00;101053.44;5002483;28;45402;-80
2022/08/03 04:35:28;;;;;;;;;5.67;3.67;;;;;22.55;100.00;101039.75;5007559;28;45601;-81
2022/08/03 04:37:57;;;;;;;;;4.33;4.00;;;;;22.74;100.00;101048.38;5013395;28;45367;-81
2022/08/03 04:40:35;;;;;;;;;6.67;5.33;;;;;22.91;100.00;101047.22;5007262;28;46354;-80
2022/08/03 04:43:01;;;;;;;;;5.00;4.67;;;;;23.02;100.00;101037.66;5014175;28;45526;-78
2022/08/03 04:45:29;;;;;;;;;5.00;4.00;;;;;23.30;100.00;101040.91;5012910;28;45519;-81
2022/08/03 04:47:56;;;;;;;;;7.00;4.00;;;;;23.54;100.00;101031.84;5024299;28;46058;-82
2022/08/03 04:50:22;;;;;;;;;3.00;3.00;;;;;23.91;100.00;101042.53;5008503;28;46668;-77
2022/08/03 04:52:47;;;;;;;;;8.00;5.67;;;;;24.26;100.00;101034.94;5007598;28;45694;-76
2022/08/03 04:55:25;;;;;;;;;7.67;4.00;;;;;24.67;100.00;101033.72;5011912;28;45744;-76
2022/08/03 04:57:50;;;;;;;;;7.67;4.00;;;;;25.07;100.00;101025.16;5000577;28;47133;-76
2022/08/03 05:00:16;;;;;;;;;3.33;3.00;;;;;25.46;100.00;101022.09;5009427;28;46019;-77
2022/08/03 05:02:42;;;;;;;;;7.67;4.33;;;;;25.88;100.00;101028.78;5012615;28;45693;-81
2022/08/03 05:05:10;;;;;;;;;6.33;4.67;;;;;26.24;100.00;101008.53;5011434;28;45724;-77
2022/08/03 05:07:36;;;;;;;;;4.00;4.00;;;;;26.70;100.00;101015.28;5011043;28;46255;-77
2022/08/03 05:10:06;;;;;;;;;5.33;4.67;;;;;27.11;100.00;101007.97;5026749;28;48020;-72
2022/08/03 05:12:32;;;;;;;;;6.00;4.67;;;;;27.65;100.00;101019.44;5006715;28;45770;-81
2022/08/03 05:14:57;;;;;;;;;5.33;4.33;;;;;28.12;100.00;101019.19;5001512;28;45510;-80
2022/08/03 05:17:23;;;;;;;;;6.33;5.00;;;;;28.49;100.00;101005.81;5022989;28;45924;-81
2022/08/03 05:19:48;;;;;;;;;7.67;4.00;;;;;29.12;100.00;101015.03;5007562;28;45938;-77
2022/08/03 05:22:14;;;;;;;;;5.33;3.67;;;;;29.55;100.00;101019.09;5012649;28;46069;-77
2022/08/03 05:24:39;;;;;;;;;6.25;3.00;;;;;29.92;100.00;101006.31;5013867;28;45799;-82
2022/08/03 05:27:05;;;;;;;;;5.00;2.33;;;;;30.24;100.00;101012.59;5011736;28;45477;-81
2022/08/03 05:29:30;;;;;;;;;8.00;4.00;;;;;30.54;100.00;101009.88;5008968;28;45467;-80
2022/08/03 05:31:55;;;;;;;;;3.75;3.75;;;;;30.85;100.00;101013.56;5016271;28;45444;-79
2022/08/03 05:34:21;;;;;;;;;5.00;4.00;;;;;31.19;99.01;101006.91;5002918;28;46693;-78
2022/08/03 05:36:46;;;;;;;;;4.00;4.00;;;;;31.50;95.52;101006.50;5002057;28;45531;-79
2022/08/03 05:39:15;;;;;;;;;3.00;3.00;;;;;31.84;92.16;101004.59;5005123;28;45631;-75
2022/08/03 05:41:40;;;;;;;;;4.33;3.33;;;;;32.37;87.33;101015.44;5005919;28;45518;-81
2022/08/03 05:44:06;;;;;;;;;5.00;5.00;;;;;32.84;81.25;101023.56;5012787;28;45878;-81
2022/08/03 05:46:31;;;;;;;;;3.25;3.25;;;;;33.25;75.87;101021.69;5004654;28;45342;-82
2022/08/03 05:48:56;;;;;;;;;4.50;3.75;;;;;33.48;74.18;101024.00;5021826;28;45420;-82
2022/08/03 05:51:22;;;;;;;;;2.25;2.25;;;;;33.81;70.04;101019.31;5021520;28;45404;-83
2022/08/03 05:53:47;;;;;;;;;5.25;3.50;;;;;34.05;69.11;101021.22;5020900;28;45601;-84
2022/08/03 05:56:13;;;;;;;;;3.75;3.25;;;;;34.57;65.47;101019.38;5047982;28;46446;-81
2022/08/03 05:58:38;;;;;;;;;2.75;2.75;;;;;35.15;62.07;101027.38;5016277;28;45531;-81
2022/08/03 06:01:04;;;;;;;;;3.75;2.00;;;;;35.60;58.82;101022.31;5022509;28;45403;-76
2022/08/03 06:03:29;;;;;;;;;3.50;2.50;;;;;35.86;55.96;101013.13;5016497;28;45902;-80
2022/08/03 06:05:58;;;;;;;;;4.75;3.25;;;;;36.15;54.48;101031.63;5022773;28;45530;-75
2022/08/03 06:08:23;;;;;;;;;3.50;3.50;;;;;36.40;53.28;101029.28;5007753;28;46210;-78
2022/08/03 06:10:49;;;;;;;;;4.00;4.00;;;;;36.72;52.21;101029.06;5000853;28;46003;-75
2022/08/03 06:13:15;;;;;;;;;2.25;2.00;;;;;37.04;50.16;101028.78;5002633;28;46209;-78
2022/08/03 06:15:40;;;;;;;;;5.25;2.25;;;;;37.54;48.44;101013.59;4996741;28;45533;-78
2022/08/03 06:18:06;;;;;;;;;3.25;2.00;;;;;38.12;46.65;101026.59;5002429;28;45791;-76
2022/08/03 06:20:32;;;;;;;;;3.50;3.50;;;;;38.60;44.37;101023.03;4997902;28;45831;-75
2022/08/03 06:22:59;;;;;;;;;6.25;3.75;;;;;39.09;43.07;101027.53;5006173;28;45927;-77
2022/08/03 06:25:25;;;;;;;;;4.25;3.50;;;;;39.74;40.79;101030.00;4999836;28;45872;-75
2022/08/03 06:27:50;;;;;;;;;5.00;3.00;;;;;40.09;39.77;101032.19;5003334;28;45472;-77
2022/08/03 06:30:17;;;;;;;;;3.50;2.00;;;;;40.24;39.25;101022.41;5002030;28;45623;-77
2022/08/03 06:32:43;;;;;;;;;3.00;2.50;;;;;41.08;37.02;101034.78;5001747;28;45601;-75
2022/08/03 06:35:09;;;;;;;;;2.00;2.00;;;;;41.48;35.40;101029.78;4999768;28;46803;-79
2022/08/03 06:37:45;;;;;;;;;2.75;2.75;;;;;41.67;35.03;101028.50;5001837;28;46205;-77
2022/08/03 06:40:12;;;;;;;;;2.50;2.50;;;;;41.63;34.45;101034.25;5004522;28;46009;-79
2022/08/03 06:42:38;;;;;;;;;2.75;2.75;;;;;41.66;34.25;101029.72;5005774;28;45959;-75
2022/08/03 06:45:05;;;;;;;;;1.50;1.50;;;;;41.80;33.77;101028.84;5005965;28;45786;-77
2022/08/03 06:47:30;;;;;;;;;3.00;3.00;;;;;41.90;33.08;101028.00;5000940;28;46931;-76
2022/08/03 06:49:56;;;;;;;;;2.25;2.25;;;;;41.77;33.45;101035.47;5013809;28;45936;-83
2022/08/03 06:52:21;;;;;;;;;3.50;2.75;;;;;42.32;32.34;101031.91;5009454;28;46065;-82
2022/08/03 06:54:48;;;;;;;;;3.00;3.00;;;;;42.34;32.25;101029.41;5008681;28;45823;-82
2022/08/03 06:57:15;;;;;;;;;3.25;3.25;;;;;42.30;32.03;101005.56;5010491;28;46084;-83
2022/08/03 06:59:41;;;;;;;;;3.50;2.00;;;;;42.52;30.95;101002.53;5008983;28;45621;-82
2022/08/03 07:02:08;;;;;;;;;4.00;4.00;;;;;42.75;31.26;101022.13;5001768;28;45792;-80
2022/08/03 07:04:34;;;;;;;;;4.75;3.25;;;;;42.84;30.54;101022.44;5005273;28;45553;-79
2022/08/03 07:07:02;;;;;;;;;4.00;3.67;;;;;42.92;30.50;101014.53;5013390;28;48020;-82
2022/08/03 07:09:27;;;;;;;;;2.33;2.33;;;;;43.12;30.55;101019.72;5008154;28;45681;-82
2022/08/03 07:11:54;;;;;;;;;8.67;7.33;;;;;43.06;29.67;101030.09;5000223;28;45458;-78
2022/08/03 07:14:20;;;;;;;;;3.67;2.33;;;;;43.30;29.82;101011.69;4990556;28;45623;-81
2022/08/03 07:16:46;;;;;;;;;3.00;3.00;;;;;44.11;28.20;101021.00;5008267;28;45787;-82
2022/08/03 07:19:13;;;;;;;;;3.75;3.75;;;;;44.62;28.05;101027.72;4999803;28;45820;-80
2022/08/03 07:21:38;;;;;;;;;4.25;4.00;;;;;44.75;27.91;101020.06;5001977;28;45558;-80
2022/08/03 07:24:04;;;;;;;;;4.00;3.00;;;;;44.97;27.62;101022.53;5006486;28;45964;-77
2022/08/03 07:26:30;;;;;;;;;3.67;3.67;;;;;45.55;26.57;101018.59;5004875;28;46866;-81
2022/08/03 07:28:55;;;;;;;;;5.33;4.00;;;;;45.85;26.35;101023.34;5006205;28;45994;-78
2022/08/03 07:31:21;;;;;;;;;3.00;3.00;;;;;46.33;25.10;101015.22;5002031;28;45625;-76
2022/08/03 07:33:46;;;;;;;;;5.00;4.00;;;;;46.47;25.56;101020.66;5000856;28;45676;-80
2022/08/03 07:36:12;;;;;;;;;4.67;4.00;;;;;46.80;24.60;101008.25;5000780;28;46498;-77
2022/08/03 07:38:37;;;;;;;;;4.00;4.00;;;;;47.09;24.24;101007.47;5006230;28;45448;-77
2022/08/03 07:41:03;;;;;;;;;6.00;4.67;;;;;47.62;24.02;101015.94;5008877;28;45443;-76
2022/08/03 07:43:28;;;;;;;;;5.00;5.00;;;;;47.93;23.98;101018.38;5009026;28;45503;-76
2022/08/03 07:45:54;;;;;;;;;7.67;6.00;;;;;48.34;23.10;101014.53;5007086;28;46784;-75
2022/08/03 07:48:19;;;;;;;;;5.00;4.00;;;;;48.34;22.87;101026.16;5006438;28;45583;-76
2022/08/03 07:50:45;;;;;;;;;7.33;3.67;;;;;48.77;22.88;101029.75;5006283;28;45412;-77
2022/08/03 07:53:10;;;;;;;;;3.67;3.67;;;;;49.00;22.00;101025.63;5007300;28;45560;-77
2022/08/03 07:55:36;;;;;;;;;5.33;4.33;;;;;49.05;22.26;101009.63;5010252;28;47204;-78
2022/08/03 07:58:17;;;;;;;;;6.00;5.00;;;;;49.06;22.25;101023.72;5013697;28;45586;-79
2022/08/03 08:00:43;;;;;;;;;6.00;5.00;;;;;49.75;21.42;101012.47;4999173;28;45859;-79
2022/08/03 08:03:09;;;;;;;;;5.67;3.67;;;;;50.36;20.91;101012.97;5009610;28;45990;-78
2022/08/03 08:05:35;;;;;;;;;7.33;5.00;;;;;50.89;20.35;101016.97;5010680;28;46058;-78
2022/08/03 08:08:01;;;;;;;;;5.00;5.00;;;;;51.40;20.22;101001.75;5012442;28;45866;-80
2022/08/03 08:10:27;;;;;;;;;6.00;6.00;;;;;51.80;19.31;101012.38;5015776;28;45908;-80
2022/08/03 08:12:53;;;;;;;;;4.33;4.33;;;;;51.96;18.52;101014.13;5011370;28;47346;-79
2022/08/03 08:15:19;;;;;;;;;5.67;5.67;;;;;51.58;18.92;101012.59;5024624;28;48071;-78
2022/08/03 08:17:51;;;;;;;;;4.00;4.00;;;;;52.05;19.19;100998.69;5013294;28;45426;-78
2022/08/03 08:20:22;;;;;;;;;3.67;3.67;;;;;52.70;18.45;101010.88;5011859;28;45428;-81
2022/08/03 08:22:48;;;;;;;;;9.33;5.00;;;;;53.17;17.63;101005.47;5002630;28;47257;-80
2022/08/03 08:25:14;;;;;;;;;7.00;5.67;;;;;53.92;17.22;101015.13;4994989;28;45869;-80
2022/08/03 08:27:41;;;;;;;;;6.67;4.67;;;;;53.89;17.44;101012.41;5010336;28;45703;-80
2022/08/03 08:30:08;;;;;;;;;3.00;3.00;;;;;53.94;16.38;101014.63;5007617;28;45392;-79
2022/08/03 08:32:36;;;;;;;;;6.00;4.00;;;;;53.46;17.06;101007.63;5013197;28;45582;-75
2022/08/03 08:35:02;;;;;;;;;5.33;3.67;;;;;53.09;17.32;101004.22;5020653;28;46867;-74
2022/08/03 08:37:28;;;;;;;;;4.33;3.67;;;;;53.50;16.59;101000.75;5010836;28;45832;-82
2022/08/03 08:39:55;;;;;;;;;3.67;3.67;;;;;53.77;16.95;100997.53;5008839;28;45936;-81
2022/08/03 08:42:20;;;;;;;;;3.00;3.00;;;;;53.96;16.81;100997.28;5012549;28;45653;-81
2022/08/03 08:44:46;;;;;;;;;4.00;2.33;;;;;54.31;16.32;100996.53;5013130;28;46033;-78
2022/08/03 08:47:16;;;;;;;;;4.67;2.00;;;;;54.36;15.52;100998.75;5016492;28;45859;-79
2022/08/03 08:49:41;;;;;;;;;6.00;4.00;;;;;53.74;16.95;100995.63;5009119;28;45500;-78
2022/08/03 08:52:12;;;;;;;;;4.33;4.00;;;;;53.87;16.67;100997.41;5015684;28;45872;-77
2022/08/03 08:54:40;;;;;;;;;4.00;4.00;;;;;54.33;15.86;100996.84;5018275;28;45517;-75
2022/08/03 08:57:08;;;;;;;;;7.00;5.00;;;;;54.72;15.56;100984.84;5015920;28;45485;-76
2022/08/03 08:59:33;;;;;;;;;6.00;3.00;;;;;54.15;15.63;100969.34;5008937;28;45797;-76
2022/08/03 09:01:59;;;;;;;;;4.00;3.00;;;;;54.07;15.23;100982.84;5016459;28;45671;-77
2022/08/03 09:04:27;;;;;;;;;4.00;3.67;;;;;54.21;15.53;100981.16;5008851;28;45897;-77
2022/08/03 09:06:53;;;;;;;;;3.00;2.33;;;;;54.27;16.38;100966.56;5009556;28;45603;-78
2022/08/03 09:09:18;;;;;;;;;4.00;2.33;;;;;54.75;15.54;100977.94;5011078;28;45855;-77
2022/08/03 09:11:44;;;;;;;;;2.33;1.00;;;;;54.94;15.36;100971.75;5020201;28;46034;-82
2022/08/03 09:14:10;;;;;;;;;1.00;1.00;;;;;55.21;14.43;100962.44;5010314;28;45615;-75
2022/08/03 09:16:36;;;;;;;;;1.00;1.00;;;;;55.61;14.20;100968.72;5011566;28;45491;-75
2022/08/03 09:19:13;;;;;;;;;2.00;2.00;;;;;55.83;14.67;100976.13;5011263;28;45482;-76
2022/08/03 09:21:39;;;;;;;;;1.33;1.33;;;;;56.24;14.72;100975.91;5000866;28;45561;-75
2022/08/03 09:24:05;;;;;;;;;2.00;2.00;;;;;56.33;13.91;100978.66;5006163;28;45879;-78
2022/08/03 09:26:36;;;;;;;;;4.00;3.00;;;;;56.25;13.41;100965.72;5006006;28;45556;-76
2022/08/03 09:29:09;;;;;;;;;1.00;1.00;;;;;55.95;14.68;100977.84;5001283;28;46823;-77
2022/08/03 09:31:37;;;;;;;;;2.00;2.00;;;;;56.50;14.18;100974.97;5007677;28;45690;-77
2022/08/03 09:34:04;;;;;;;;;2.67;2.67;;;;;56.82;14.38;100969.78;5007568;28;47074;-76
2022/08/03 09:36:47;;;;;;;;;2.00;1.67;;;;;56.96;13.65;100967.97;5010262;28;45771;-76
2022/08/03 09:39:16;;;;;;;;;1.67;1.67;;;;;57.10;13.18;100966.09;5008471;28;45542;-77
2022/08/03 09:41:44;;;;;;;;;2.00;1.00;;;;;56.93;13.69;100972.78;5017746;28;45928;-78
2022/08/03 09:44:09;;;;;;;;;2.67;2.67;;;;;57.25;13.90;100963.72;5008428;28;45995;-75
2022/08/03 09:46:51;;;;;;;;;3.00;2.00;;;;;57.23;13.24;100948.72;5019523;28;45808;-78
2022/08/03 09:49:17;;;;;;;;;3.00;3.00;;;;;57.05;12.64;100966.91;5009197;28;45885;-78
2022/08/03 09:51:43;;;;;;;;;3.00;2.00;;;;;56.62;13.17;100958.19;5011773;28;45865;-82
2022/08/03 09:54:09;;;;;;;;;2.67;2.33;;;;;55.83;12.91;100941.63;4987395;28;47966;-79
2022/08/03 09:56:38;;;;;;;;;2.67;1.67;;;;;55.39;13.79;100948.75;5003717;28;45917;-77
2022/08/03 09:59:03;;;;;;;;;5.67;5.67;;;;;55.05;13.78;100942.50;5009199;28;46055;-77
2022/08/03 10:01:34;;;;;;;;;2.33;1.33;;;;;55.68;13.93;100932.97;4998876;28;46021;-78
2022/08/03 10:04:00;;;;;;;;;1.67;1.67;;;;;56.42;12.89;100945.22;5006195;28;46335;-79
2022/08/03 10:06:26;;;;;;;;;1.00;1.00;;;;;56.99;12.77;100942.53;5006449;28;45740;-83
2022/08/03 10:09:04;;;;;;;;;1.67;1.67;;;;;57.20;12.21;100937.22;5008800;28;45796;-79
2022/08/03 10:11:31;;;;;;;;;0.33;0.33;;;;;57.99;11.55;100940.16;5014368;28;45547;-80
2022/08/03 10:13:57;;;;;;;;;0.67;0.67;;;;;57.87;12.06;100936.41;5007492;28;46353;-79
2022/08/03 10:16:22;;;;;;;;;0.33;0.33;;;;;57.61;12.25;100928.63;5000022;28;45666;-78
2022/08/03 10:18:48;;;;;;;;;2.00;2.00;;;;;57.27;12.04;100928.63;5005380;28;46047;-79
2022/08/03 10:21:18;;;;;;;;;1.33;1.33;;;;;57.80;12.08;100920.00;5003534;28;45832;-77
2022/08/03 10:23:45;;;;;;;;;1.33;1.33;;;;;57.92;12.25;100925.94;5003142;28;46783;-76
2022/08/03 10:26:15;;;;;;;;;3.67;1.00;;;;;57.66;12.32;100932.94;5005079;28;45928;-77
2022/08/03 10:28:48;;;;;;;;;2.00;1.00;;;;;56.69;12.65;100923.13;5006888;28;45762;-78
2022/08/03 10:31:17;;;;;;;;;3.00;2.00;;;;;56.58;12.88;100920.94;4997313;28;45934;-78
2022/08/03 10:33:46;;;;;;;;;1.00;1.00;;;;;57.21;12.06;100913.09;5004459;28;45516;-78
2022/08/03 10:36:13;;;;;;;;;2.00;2.00;;;;;57.81;12.36;100909.03;5005974;28;45463;-77
2022/08/03 10:38:51;;;;;;;;;1.00;1.00;;;;;58.24;11.42;100896.84;5020533;28;45862;-77
2022/08/03 10:41:20;;;;;;;;;2.00;0.00;;;;;58.41;11.63;100908.59;5014105;28;45727;-77
2022/08/03 10:44:02;;;;;;;;;1.00;1.00;;;;;57.85;11.40;100894.81;5005901;28;46052;-77
2022/08/03 10:46:28;;;;;;;;;0.33;0.33;;;;;57.49;11.66;100908.50;5007389;28;45501;-77
2022/08/03 10:48:55;;;;;;;;;13.67;10.33;;;;;57.03;12.43;100898.81;5026726;28;45783;-75
2022/08/03 10:51:22;;;;;;;;;1.00;1.00;;;;;56.53;12.37;100888.50;5008539;28;45944;-77
2022/08/03 10:53:47;;;;;;;;;3.33;2.33;;;;;56.57;11.91;100886.94;5002086;28;48103;-77
2022/08/03 10:59:19;;;;;;;;;2.33;1.00;;;;;55.58;12.40;100883.63;5004603;28;45571;-78
2022/08/03 11:01:54;;;;;;;;;1.00;1.00;;;;;55.37;12.50;100875.75;5006608;28;46179;-78
2022/08/03 11:04:22;;;;;;;;;0.00;0.00;;;;;55.11;12.15;100872.81;5011769;28;47858;-77
2022/08/03 11:07:21;;;;;;;;;1.00;1.00;;;;;55.08;13.05;100878.94;5006105;28;45775;-77
2022/08/03 11:09:49;;;;;;;;;1.00;1.00;;;;;54.73;13.13;100874.03;4999761;28;45844;-78
2022/08/03 11:12:29;;;;;;;;;1.00;1.00;;;;;54.47;13.41;100875.59;5008435;28;45497;-75
2022/08/03 11:14:57;;;;;;;;;2.00;2.00;;;;;54.13;13.78;100866.31;5010880;28;46103;-75
2022/08/03 11:17:23;;;;;;;;;0.67;0.67;;;;;53.22;14.30;100851.53;5015219;28;45733;-75
2022/08/03 11:19:50;;;;;;;;;2.00;1.00;;;;;52.10;14.57;100868.44;5011769;28;45609;-74
2022/08/03 11:22:17;;;;;;;;;2.00;2.00;;;;;51.66;14.79;100856.00;5005589;28;46035;-75
2022/08/03 11:24:45;;;;;;;;;2.00;2.00;;;;;51.26;15.12;100870.88;4999839;28;45865;-75
2022/08/03 11:27:13;;;;;;;;;1.00;1.00;;;;;50.59;15.61;100853.91;5005460;28;45485;-81
2022/08/03 11:30:13;;;;;;;;;3.67;3.00;;;;;49.27;16.00;100849.44;5008074;28;45477;-79
2022/08/03 11:32:42;;;;;;;;;2.33;2.33;;;;;47.96;17.12;100837.97;5006110;28;45709;-76
2022/08/03 11:35:12;;;;;;;;;3.00;3.00;;;;;47.04;18.05;100844.16;5009182;28;45712;-76
2022/08/03 11:37:56;;;;;;;;;1.33;1.33;;;;;46.15;18.23;100842.44;5006694;28;45901;-74
2022/08/03 11:40:46;;;;;;;;;2.67;2.00;;;;;45.51;18.78;100841.94;5008363;28;45674;-75